• Join FlightAware (Why Join?)
  • Login
  • US Flag 
09:08PM EDT


 

Airport Tracker/Info


-or-


 

Live Flight TrackerFlight Track Log ✈ UAL1463 ✈ 29-Jun-2014 ✈ KORD - KICT

Flight Track Log - Related Links

Times and Time Zones

All times are in EDT time to prevent confusion due to time zone crossing. See the UAL1463 flight status page for this flight to view local times or setup timezone preferences in your user account.

Time Position Orientation Groundspeed Altitude Reporting Facility
EDT Latitude Longitude Course Direction KTS MPH feet Rate Location/Type
09:37PM 41.9500 -87.9667 198° South 182 209 2,800  Level Chicago TRACON
09:38PM 41.8833 -88.0167 209° Southwest 252 290 5,000 1,380 Climbing Chicago TRACON
09:39PM 41.6287 -88.0674 203° Southwest  Level FlightAware Approximate
09:39PM 41.8283 -87.9683 147° Southeast 272 313 5,700  Level Chicago Center
09:40PM 41.5136 -88.1180 197° South  Level FlightAware Approximate
09:40PM 41.7692 -87.8933 137° Southeast 292 336 8,900  Level Chicago Center
09:41PM 41.3980 -88.1667 180° South  Level FlightAware Approximate
09:41PM 41.6911 -87.9292 199° South 292 336 12,300  Level Chicago Center
09:42PM 41.2878 -88.2282 197° South  Level FlightAware Approximate
09:42PM 41.6219 -87.9900 213° Southwest 298 343 15,000  Level Chicago Center
09:43PM 41.1719 -88.2763 198° South  Level FlightAware Approximate
09:43PM 41.5358 -88.0647 213° Southwest 345 397 17,600  Level Chicago Center
09:44PM 41.4586 -88.1336 214° Southwest 355 409 19,900 2,040 Climbing Chicago Center
09:45PM 41.3678 -88.1989 208° Southwest 385 443 21,800 1,920 Climbing Chicago Center
09:47PM 41.2619 -88.2453 198° South 404 465 23,900 1,680 Climbing Chicago Center
09:48PM 41.1283 -88.3061 199° South 421 484 25,300 1,380 Climbing Chicago Center
09:49PM 41.0072 -88.3631 200° South 453 521 26,800 1,620 Climbing Chicago Center
09:50PM 40.9011 -88.4656 216° Southwest 457 526 28,700 1,920 Climbing Chicago Center
09:51PM 40.8047 -88.5644 218° Southwest 456 525 30,800 1,920 Climbing Chicago Center
09:52PM 40.7075 -88.6639 218° Southwest 447 514 32,700 1,920 Climbing Chicago Center
09:53PM 40.6128 -88.7606 218° Southwest 437 503 34,800 1,920 Climbing Chicago Center
09:54PM 40.5142 -88.8597 217° Southwest 417 480 36,700 1,320 Climbing Chicago Center
09:55PM 40.4250 -88.9506 218° Southwest 408 470 37,600 600 Climbing Chicago Center
09:56PM 40.3336 -89.0411 217° Southwest 408 470 38,000 180 Climbing Chicago Center
09:57PM 40.2417 -89.1331 217° Southwest 410 472 38,000  Level Chicago Center
09:58PM 40.1506 -89.2242 217° Southwest 409 471 38,000  Level Chicago Center
09:59PM 40.0772 -89.2961 217° Southwest 409 471 38,000  Level Kansas City Center
10:00PM 39.9875 -89.3875 218° Southwest 409 471 38,000  Level Kansas City Center
10:01PM 39.9111 -89.5292 235° Southwest 414 476 38,000  Level Kansas City Center
10:02PM 39.8697 -89.6633 248° West 405 466 38,000  Level Kansas City Center
10:03PM 39.8286 -89.8011 249° West 404 465 38,000  Level Kansas City Center
10:04PM 39.7867 -89.9369 248° West 405 466 38,000  Level Kansas City Center
10:05PM 39.7450 -90.0739 248° West 405 466 38,000  Level Kansas City Center
10:06PM 39.6992 -90.2278 249° West 406 467 38,000  Level Kansas City Center
10:07PM 39.6569 -90.3650 248° West 409 471 38,000  Level Kansas City Center
10:08PM 39.6144 -90.5008 248° West 409 471 38,000  Level Kansas City Center
10:09PM 39.5717 -90.6372 248° West 409 471 38,000  Level Kansas City Center
10:10PM 39.5297 -90.7736 248° West 409 471 38,000  Level Kansas City Center
10:11PM 39.4861 -90.9092 247° West 409 471 38,000  Level Kansas City Center
10:12PM 39.4344 -91.0700 247° West 409 471 38,000  Level Kansas City Center
10:13PM 39.3908 -91.2072 248° West 410 472 38,000  Level Kansas City Center
10:15PM 39.3014 -91.4822 248° West 413 475 38,000  Level Kansas City Center
10:16PM 39.2564 -91.6189 247° West 415 478 38,000  Level Kansas City Center
10:17PM 39.2125 -91.7597 248° West 412 474 38,000  Level Kansas City Center
10:18PM 39.1672 -91.8983 247° West 413 475 38,000  Level Kansas City Center
10:19PM 39.1214 -92.0361 247° West 414 476 38,000  Level Kansas City Center
10:20PM 39.0650 -92.1992 246° West 415 478 38,000  Level Kansas City Center
10:21PM 39.0189 -92.3386 247° West 418 481 38,000  Level Kansas City Center
10:22PM 38.9717 -92.4789 247° West 423 487 38,000  Level Kansas City Center
10:23PM 38.9239 -92.6206 247° West 427 491 38,000  Level Kansas City Center
10:24PM 38.8592 -92.7506 237° Southwest 438 504 38,000  Level Kansas City Center
10:25PM 38.7836 -92.8658 230° Southwest 429 494 38,000  Level Kansas City Center
10:26PM 38.7075 -92.9842 231° Southwest 428 493 38,000  Level Kansas City Center
10:27PM 38.6306 -93.0978 229° Southwest 428 493 38,000  Level Kansas City Center
10:28PM 38.5406 -93.2375 231° Southwest 427 491 38,000  Level Kansas City Center
10:29PM 38.4642 -93.3561 231° Southwest 428 493 38,000  Level Kansas City Center
10:30PM 38.3875 -93.4753 231° Southwest 431 496 38,000  Level Kansas City Center
10:32PM 38.3117 -93.5931 231° Southwest 432 497 38,000  Level Kansas City Center
10:33PM 38.2775 -93.7369 253° West 432 497 38,000  Level Kansas City Center
10:34PM 38.2542 -93.8867 259° West 430 495 38,000  Level Kansas City Center
10:35PM 38.2342 -94.0378 260° West 431 496 38,000  Level Kansas City Center
10:36PM 38.2114 -94.2006 260° West 431 496 38,000  Level Kansas City Center
10:37PM 38.1897 -94.3528 260° West 435 501 38,000  Level Kansas City Center
10:38PM 38.1675 -94.5061 260° West 438 504 38,000  Level Kansas City Center
10:39PM 38.1461 -94.6586 260° West 439 505 38,000  Level Kansas City Center
10:40PM 38.1233 -94.8100 259° West 438 504 38,000  Level Kansas City Center
10:41PM 38.0972 -94.9894 260° West 436 502 38,000  Level Kansas City Center
10:42PM 38.0742 -95.1392 259° West 430 495 38,000  Level Kansas City Center
10:43PM 38.0519 -95.2878 259° West 432 497 38,000  Level Kansas City Center
10:44PM 38.0300 -95.4331 259° West 423 487 38,000  Level Kansas City Center
10:45PM 38.0075 -95.5822 259° West 426 490 38,000  Level Kansas City Center
10:46PM 37.9853 -95.7311 259° West 429 494 38,000  Level Kansas City Center
10:47PM 37.9619 -95.8794 259° West 429 494 38,000  Level Kansas City Center
10:48PM 37.9386 -96.0289 259° West 430 495 38,000  Level Kansas City Center
10:49PM 37.9117 -96.1958 258° West 433 498 38,000  Level Kansas City Center
10:50PM 37.8872 -96.3453 258° West 433 498 38,000  Level Kansas City Center
10:51PM 37.8636 -96.4950 259° West 433 498 38,000  Level Kansas City Center
10:52PM 37.8392 -96.6456 258° West 434 499 38,000  Level Kansas City Center
10:53PM 37.8150 -96.7950 258° West 435 501 38,000  Level Kansas City Center
10:54PM 37.7897 -96.9469 258° West 437 503 38,000  Level Kansas City Center
10:55PM 37.7586 -97.1311 258° West 437 503 38,000  Level Kansas City Center
10:56PM 37.7333 -97.2781 258° West 438 504 38,000  Level Kansas City Center
10:57PM 37.7072 -97.4297 258° West 439 505 38,000  Level Kansas City Center
10:58PM 37.6769 -97.5958 257° West 441 507 38,000  Level Kansas City Center
10:59PM 37.6503 -97.7481 258° West 441 507 38,000  Level Kansas City Center
11:00PM 37.6256 -97.8908 258° West 443 510 38,000  Level Kansas City Center
11:01PM 37.5994 -98.0461 258° West 444 511 38,000  Level Kansas City Center
11:02PM 37.5728 -98.2003 258° West 445 512 38,000 240 Level Kansas City Center
11:03PM 37.5458 -98.3536 258° West 445 512 38,600 900 Climbing Kansas City Center
11:04PM 37.5283 -98.5047 262° West 442 509 39,900 -240 Climbing Kansas City Center
11:05PM 37.5075 -98.6828 262° West 433 498 38,200 -2,340 Descending Kansas City Center
11:06PM 37.4872 -98.8353 261° West 434 499 35,200 -2,820 Descending Kansas City Center
11:07PM 37.4686 -98.9894 261° West 440 506 32,600 -3,000 Descending Kansas City Center
11:08PM 37.4458 -99.1439 260° West 445 512 29,100 -3,600 Descending Kansas City Center
11:09PM 37.3486 -99.2469 220° Southwest 458 527 25,200 -2,760 Descending Kansas City Center
11:10PM 37.2194 -99.2119 168° South 462 532 23,500 -1,920 Descending Kansas City Center
11:11PM 37.1683 -99.0822 116° Southeast 457 526 21,400 -1,920 Descending Kansas City Center
11:13PM 37.2003 -98.9394 74° East 438 504 19,600 -1,980 Descending Kansas City Center
11:14PM 37.2539 -98.8114 62° Northeast 423 487 17,400 -2,340 Descending Kansas City Center
11:14PM 37.2850 -98.7386 62° Northeast 416 479 16,000 -2,700 Descending Kansas City Center
11:15PM 37.3144 -98.6600 65° Northeast 410 472 14,800 -2,280 Descending Kansas City Center
11:15PM 37.3506 -98.5772 61° Northeast 396 456 13,500 -1,920 Descending Kansas City Center
11:16PM 37.3644 -98.5392 65° Northeast 399 459 12,900 -1,920 Descending Kansas City Center
11:16PM 37.4019 -98.4492 62° Northeast 381 438 11,400 -1,980 Descending Kansas City Center
11:17PM 37.4117 -98.4217 66° East 384 442 10,800 -1,200 Descending Kansas City Center
11:18PM 37.4586 -98.3053 63° Northeast 380 437 9,900 -720 Descending Kansas City Center
11:18PM 37.4911 -98.2258 63° Northeast 330 380 9,600 -540 Descending Kansas City Center
11:19PM 37.4994 -98.2039 64° Northeast 338 389 9,400 -900 Descending Kansas City Center
11:19PM 37.5286 -98.1308 63° Northeast 300 345 8,700 -900 Descending Kansas City Center
11:20PM 37.5375 -98.1086 63° Northeast 313 360 8,500 -1,020 Descending Kansas City Center
11:20PM 37.5714 -98.0269 62° Northeast 306 352 7,700 -900 Descending Kansas City Center
11:21PM 37.5744 -98.0128 75° East 311 358 7,600 -900 Descending Kansas City Center
11:21PM 37.6069 -97.9347 62° Northeast 300 345 6,800 -1,020 Descending Kansas City Center
11:22PM 37.6125 -97.9206 64° Northeast 303 349 6,600 -960 Descending Kansas City Center
11:22PM 37.6461 -97.8364 63° Northeast 310 357 5,900 -840 Descending Kansas City Center
11:23PM 37.6583 -97.8033 65° Northeast 307 353 5,800 -540 Descending Kansas City Center
11:23PM 37.6850 -97.7381 63° Northeast 317 365 5,400 -600 Descending Kansas City Center
11:24PM 37.6972 -97.7050 65° Northeast 312 359 5,200 -720 Descending Kansas City Center
11:24PM 37.7239 -97.6372 64° Northeast 314 361 4,700 -840 Descending Kansas City Center
11:25PM 37.7361 -97.6083 62° Northeast 313 360 4,400 -840 Descending Kansas City Center
11:25PM 37.7544 -97.5397 71° East 289 333 3,900 -420 Descending Kansas City Center
11:26PM 37.7603 -97.5144 74° East 296 341 4,000 -240 Climbing Kansas City Center
11:26PM 37.7694 -97.4581 78° East 221 254 3,700 -420 Descending Kansas City Center
11:27PM 37.7700 -97.4358 88° East 264 304 3,600 -720 Descending Kansas City Center
11:27PM 37.7608 -97.3906 104° East 171 197 3,000 -720 Descending Kansas City Center
11:28PM 37.7531 -97.3819 139° Southeast 210 242 2,900 -240 Descending Kansas City Center
11:28PM 37.7342 -97.3975 213° Southwest 115 132 2,800 -420 Descending Kansas City Center
11:29PM 37.7239 -97.4056 212° Southwest 156 180 2,500 -720 Descending Kansas City Center
11:29PM 37.7003 -97.4158 199° South 109 125 2,000 -660 Descending Kansas City Center
11:30PM 37.6936 -97.4189 200° South 131 151 1,900 -660 Descending Kansas City Center
11:30PM 37.6661 -97.4317 200° South 123 142 1,400 -480 Descending Kansas City Center
11:31PM 37.6589 -97.4344 197° South 125 144 1,400  Level Kansas City Center